Seberi, Brazil
Current Conditions -  °F | °C
As of 7:00 AM on Thursday 27 Nov 2014 (Local Time) from SBCH Reporting Station
Clear Clear  
Wind Chill: 68°   Ceiling: Unl
Heat Index: 68°   Visibility: 6mi
Dew Point: 63°   Wind: 9mph
Humidity: 83%   Direction: 130°SE
Pressure: 29.91"   Gusts: NA
Location:  27.48°S, 53.4°W
Report Text: SBCH 270900Z 13008KT CAVOK 20/17 Q1013
Loading
Personal Weather Stations






























Interactive Weather Map New forecast layout! Learn more

10-Day Weather Forecast

Advertisements
Track Severe Weather on mobile